Time;durP1;ratioP1;P1;durP2;ratioP2;P2;SDS_P1;SDS_P2;PMS_P1;PMS_P2;Temp;Humidity;BMP_temperature;BMP_pressure;BME280_temperature;BME280_humidity;BME280_pressure;Samples;Min_cycle;Max_cycle;Signal;HPM_P1;HPM_P2
2023/01/26 00:00:48;;;;;;;4.53;2.97;;;;;;;0.69;83.76;95269.38;5050841;28;20427;-73
2023/01/26 00:03:14;;;;;;;5.60;3.45;;;;;;;0.68;83.85;95292.88;5051055;28;20408;-73
2023/01/26 00:05:39;;;;;;;5.17;3.00;;;;;;;0.56;84.03;95288.78;5050598;28;20937;-73
2023/01/26 00:08:06;;;;;;;4.30;2.90;;;;;;;0.54;84.51;95282.94;5050373;28;20450;-73
2023/01/26 00:10:31;;;;;;;6.32;3.15;;;;;;;0.61;83.45;95273.63;5050754;28;20442;-73
2023/01/26 00:12:57;;;;;;;3.83;2.80;;;;;;;0.77;83.68;95286.03;5051412;28;20910;-73
2023/01/26 00:15:22;;;;;;;4.80;2.95;;;;;;;0.77;83.40;95304.16;5050635;28;20476;-73
2023/01/26 00:17:50;;;;;;;4.13;3.00;;;;;;;0.80;82.61;95293.50;5050467;28;20477;-73
2023/01/26 00:20:16;;;;;;;4.38;2.85;;;;;;;0.58;83.63;95316.19;5050239;28;20414;-72
2023/01/26 00:22:41;;;;;;;5.25;3.33;;;;;;;0.67;83.20;95301.59;5050118;28;20410;-72
2023/01/26 00:25:07;;;;;;;4.88;3.10;;;;;;;0.57;83.09;95282.66;5049342;28;20419;-73
2023/01/26 00:27:33;;;;;;;5.82;3.20;;;;;;;0.69;83.23;95290.13;5048828;28;20460;-73
2023/01/26 00:29:58;;;;;;;6.68;3.25;;;;;;;0.56;83.44;95279.25;5041319;28;20914;-73
2023/01/26 00:32:23;;;;;;;4.73;3.23;;;;;;;0.55;84.05;95276.78;5050478;28;20423;-73
2023/01/26 00:34:49;;;;;;;5.75;3.53;;;;;;;0.60;83.06;95265.09;5049929;28;20423;-73
2023/01/26 00:37:14;;;;;;;4.93;3.20;;;;;;;0.59;82.92;95278.97;5050843;28;20897;-73
2023/01/26 00:39:39;;;;;;;6.37;3.90;;;;;;;0.52;83.17;95264.94;5049991;28;20435;-73
2023/01/26 00:42:05;;;;;;;4.53;2.90;;;;;;;0.43;83.79;95264.97;5050181;28;20407;-72
2023/01/26 00:44:30;;;;;;;4.57;3.10;;;;;;;0.36;83.72;95252.56;5050125;28;20439;-72
2023/01/26 00:46:56;;;;;;;6.75;3.60;;;;;;;0.52;83.36;95261.56;5050018;28;20435;-72
2023/01/26 00:49:21;;;;;;;5.43;3.10;;;;;;;0.65;83.57;95254.28;5049847;28;20774;-72
2023/01/26 00:51:47;;;;;;;5.18;3.20;;;;;;;0.54;82.56;95244.09;5049835;28;20446;-72
2023/01/26 00:54:13;;;;;;;4.38;3.20;;;;;;;0.47;83.07;95245.59;5049392;28;20429;-72
2023/01/26 00:56:38;;;;;;;3.53;2.70;;;;;;;0.55;82.95;95263.84;5049662;28;20962;-72
2023/01/26 00:59:05;;;;;;;4.82;3.42;;;;;;;0.63;83.07;95248.44;5049904;28;20411;-72
2023/01/26 01:01:30;;;;;;;4.38;3.20;;;;;;;0.63;82.81;95245.84;5049712;28;20422;-73
2023/01/26 01:03:56;;;;;;;5.67;3.97;;;;;;;0.58;83.43;95245.44;5049665;28;20918;-73
2023/01/26 01:06:21;;;;;;;6.80;3.33;;;;;;;0.80;82.54;95247.69;5049845;28;20427;-73
2023/01/26 01:08:47;;;;;;;5.63;3.73;;;;;;;0.65;82.15;95224.03;5049369;28;20461;-72
2023/01/26 01:11:12;;;;;;;6.77;4.13;;;;;;;0.79;81.97;95237.47;5048840;28;20407;-73
2023/01/26 01:13:38;;;;;;;5.45;3.55;;;;;;;0.89;81.59;95236.47;5049628;28;20468;-73
2023/01/26 01:16:10;;;;;;;5.28;3.83;;;;;;;1.02;81.88;95236.16;5049602;28;20407;-73
2023/01/26 01:18:36;;;;;;;9.65;3.63;;;;;;;0.59;82.35;95241.91;5049367;28;20489;-73
2023/01/26 01:21:12;;;;;;;5.57;3.88;;;;;;;0.62;82.85;95233.84;5049244;28;20930;-73
2023/01/26 01:23:38;;;;;;;5.25;3.70;;;;;;;0.70;83.14;95227.00;5049259;28;20407;-73
2023/01/26 01:26:05;;;;;;;4.75;3.47;;;;;;;0.85;82.43;95221.38;5049353;28;20468;-72
2023/01/26 01:28:32;;;;;;;7.97;4.40;;;;;;;0.94;81.39;95228.28;5049438;28;20966;-73
2023/01/26 01:30:57;;;;;;;6.25;4.05;;;;;;;0.98;81.44;95225.25;5048451;28;20578;-73
2023/01/26 01:33:23;;;;;;;8.77;4.50;;;;;;;1.02;81.78;95224.03;5050462;28;20289;-73
2023/01/26 01:36:10;;;;;;;7.90;4.25;;;;;;;0.90;81.01;95217.38;5049265;28;20426;-73
2023/01/26 01:38:35;;;;;;;6.35;4.10;;;;;;;0.95;81.85;95222.94;5049141;28;20414;-73
2023/01/26 01:41:01;;;;;;;6.00;3.40;;;;;;;1.02;80.69;95223.22;5049430;28;20422;-73
2023/01/26 01:43:28;;;;;;;5.95;3.40;;;;;;;0.94;80.55;95230.88;5064515;28;20501;-73
2023/01/26 01:45:53;;;;;;;4.97;3.55;;;;;;;0.97;80.21;95225.41;5069328;28;20513;-73
2023/01/26 01:48:30;;;;;;;5.05;3.40;;;;;;;1.00;81.09;95220.75;5069215;28;20493;-73
2023/01/26 01:51:01;;;;;;;5.88;3.53;;;;;;;1.03;80.44;95217.88;5070134;28;20913;-73
2023/01/26 01:53:34;;;;;;;4.95;3.90;;;;;;;1.19;79.73;95214.66;5067792;28;20437;-73
2023/01/26 01:56:03;;;;;;;5.50;3.78;;;;;;;1.34;79.36;95212.38;5048987;28;20426;-73
2023/01/26 01:58:32;;;;;;;4.35;3.15;;;;;;;1.22;78.55;95208.34;5049319;28;20415;-73
2023/01/26 02:00:57;;;;;;;4.93;3.47;;;;;;;0.90;80.50;95214.78;5049185;28;20403;-72
2023/01/26 02:03:25;;;;;;;4.97;3.27;;;;;;;0.85;80.78;95221.38;5050226;28;20801;-72
2023/01/26 02:06:10;;;;;;;6.65;3.35;;;;;;;0.79;80.36;95222.75;5049179;28;20504;-72
2023/01/26 02:08:39;;;;;;;6.00;3.70;;;;;;;0.55;81.38;95214.66;5048818;28;20450;-71
2023/01/26 02:11:11;;;;;;;5.60;3.30;;;;;;;0.65;80.90;95208.47;5048873;28;20533;-72
2023/01/26 02:13:39;;;;;;;5.55;2.92;;;;;;;0.52;80.95;95196.81;5048576;28;20496;-72
2023/01/26 02:16:05;;;;;;;5.17;3.00;;;;;;;0.41;81.16;95196.97;5049025;28;20426;-72
2023/01/26 02:18:31;;;;;;;3.97;2.70;;;;;;;0.29;81.85;95189.38;5059333;28;20413;-72
2023/01/26 02:21:01;;;;;;;5.18;3.47;;;;;;;0.28;82.33;95184.31;5069722;28;20510;-72
2023/01/26 02:23:42;;;;;;;4.90;3.35;;;;;;;0.31;82.10;95181.47;5056122;28;20431;-72
2023/01/26 02:26:13;;;;;;;6.03;3.15;;;;;;;0.22;81.81;95172.78;5059269;28;20412;-72
2023/01/26 02:28:39;;;;;;;4.90;3.05;;;;;;;0.22;82.58;95167.59;5072358;28;20462;-71
2023/01/26 02:31:06;;;;;;;6.35;3.63;;;;;;;0.12;82.42;95171.16;5072428;28;20466;-71
2023/01/26 02:33:32;;;;;;;4.90;3.63;;;;;;;0.13;83.65;95171.00;5072153;28;20434;-71
2023/01/26 02:35:57;;;;;;;5.17;2.97;;;;;;;0.24;82.39;95160.50;5072157;28;20451;-72
2023/01/26 02:38:27;;;;;;;4.65;3.25;;;;;;;0.08;82.45;95155.09;5071956;28;21009;-71
2023/01/26 02:40:57;;;;;;;5.65;3.42;;;;;;;0.15;82.61;95158.75;5072260;28;20421;-72
2023/01/26 02:43:26;;;;;;;5.38;2.88;;;;;;;0.21;81.98;95155.59;5071999;28;20596;-71
2023/01/26 02:45:52;;;;;;;4.80;2.70;;;;;;;0.32;82.22;95150.28;5072784;28;20422;-72
2023/01/26 02:49:45;;;;;;;3.73;2.80;;;;;;;0.26;81.40;95147.44;5072094;28;20417;-71
2023/01/26 02:51:03;;;;;;;4.90;3.22;;;;;;;0.26;82.12;95137.88;5071728;28;20436;-72
2023/01/26 02:53:30;;;;;;;5.80;3.03;;;;;;;0.28;82.24;95128.19;5071929;28;20425;-71
2023/01/26 02:55:55;;;;;;;5.88;3.15;;;;;;;0.23;81.47;95145.13;5071899;28;20413;-71
2023/01/26 02:58:20;;;;;;;5.43;3.33;;;;;;;0.12;82.60;95135.75;5071917;28;20406;-71
2023/01/26 03:00:46;;;;;;;5.90;3.42;;;;;;;0.25;81.94;95133.69;5053505;28;20481;-71
2023/01/26 03:03:21;;;;;;;6.30;3.63;;;;;;;0.43;82.30;95123.41;5051853;28;20759;-72
2023/01/26 03:05:47;;;;;;;5.22;3.45;;;;;;;0.67;80.87;95123.69;5051902;28;20874;-72
2023/01/26 03:08:12;;;;;;;6.85;3.85;;;;;;;0.67;81.26;95112.50;5051306;28;20565;-72
2023/01/26 03:10:38;;;;;;;5.10;3.43;;;;;;;0.70;81.14;95115.63;5051819;28;20409;-72
2023/01/26 03:13:03;;;;;;;6.47;4.23;;;;;;;0.80;81.26;95120.75;5051613;28;20942;-72
2023/01/26 03:15:41;;;;;;;5.73;4.07;;;;;;;0.89;80.66;95111.28;5051659;28;20445;-72
2023/01/26 03:29:28;;;;;;;5.00;3.43;;;;;;;0.86;80.08;95089.09;5051397;28;20829;-72
2023/01/26 03:31:54;;;;;;;5.28;3.90;;;;;;;0.84;79.98;95085.00;5052069;28;20430;-72
2023/01/26 03:34:20;;;;;;;7.00;3.78;;;;;;;0.77;80.70;95089.97;5051191;28;20415;-72
2023/01/26 03:36:46;;;;;;;11.23;4.00;;;;;;;0.75;80.95;95078.94;5051039;28;20416;-72
2023/01/26 03:41:06;;;;;;;5.85;3.90;;;;;;;0.67;81.27;95089.19;5051153;28;20490;-72
2023/01/26 03:58:21;;;;;;;6.90;3.40;;;;;;;0.81;81.09;95077.53;5071078;28;20412;-73
2023/01/26 04:00:48;;;;;;;5.87;3.60;;;;;;;0.91;80.13;95083.47;5070709;28;20413;-72
2023/01/26 04:08:43;;;;;;;6.97;3.63;;;;;;;0.58;81.54;95059.00;5070417;28;20463;-72
2023/01/26 04:11:09;;;;;;;5.30;3.90;;;;;;;0.56;81.49;95055.72;5070453;28;20408;-72
2023/01/26 04:21:45;;;;;;;4.93;3.53;;;;;;;0.45;82.53;95038.59;5051438;28;20440;-72
2023/01/26 04:24:14;;;;;;;5.73;4.30;;;;;;;0.44;82.64;95026.63;5049360;28;20415;-71
2023/01/26 04:26:40;;;;;;;5.63;3.78;;;;;;;0.52;82.65;95021.53;5050100;28;20422;-71
2023/01/26 04:29:08;;;;;;;4.30;3.22;;;;;;;0.49;81.72;95021.03;5049899;28;20900;-71
2023/01/26 04:31:34;;;;;;;4.18;3.53;;;;;;;0.41;82.37;95018.34;5049928;28;20442;-71
2023/01/26 04:34:01;;;;;;;5.43;3.65;;;;;;;0.47;82.22;95012.56;5056829;28;20430;-72
2023/01/26 04:36:27;;;;;;;5.43;3.55;;;;;;;0.69;82.17;95019.94;5053275;28;20545;-73
2023/01/26 04:38:53;;;;;;;4.97;3.17;;;;;;;0.66;80.93;95028.00;5044604;28;20975;-72
2023/01/26 04:41:18;;;;;;;5.28;3.67;;;;;;;0.53;81.62;95019.75;5044374;28;20522;-72
2023/01/26 04:43:44;;;;;;;5.50;3.60;;;;;;;0.47;81.74;95030.69;5045123;28;20518;-73
2023/01/26 04:46:10;;;;;;;4.03;3.00;;;;;;;0.35;82.14;95033.47;5038763;28;20815;-73
2023/01/26 04:48:35;;;;;;;6.88;3.17;;;;;;;0.25;82.95;95035.31;5043518;28;20476;-73
2023/01/26 04:51:04;;;;;;;4.95;3.30;;;;;;;0.29;82.88;95033.25;5050229;28;20419;-72
2023/01/26 04:53:31;;;;;;;3.85;3.20;;;;;;;0.42;82.50;95043.28;5049701;28;20741;-73
2023/01/26 04:55:57;;;;;;;10.98;3.42;;;;;;;0.28;82.15;95042.78;5050190;28;20465;-73
2023/01/26 04:58:22;;;;;;;4.75;3.20;;;;;;;0.23;83.11;95033.81;5051403;28;20419;-73
2023/01/26 05:00:53;;;;;;;5.68;3.13;;;;;;;0.37;82.31;95052.28;5051314;28;20506;-73
2023/01/26 05:03:19;;;;;;;4.97;3.10;;;;;;;0.44;82.13;95036.97;5050838;28;20902;-75
2023/01/26 05:05:47;;;;;;;5.30;3.37;;;;;;;0.33;82.42;95035.41;5049147;28;20442;-73
2023/01/26 05:08:13;;;;;;;5.78;3.20;;;;;;;0.48;82.49;95032.34;5049261;28;20469;-73
2023/01/26 05:10:38;;;;;;;4.07;2.90;;;;;;;0.41;82.06;95037.28;5049818;28;20419;-73
2023/01/26 05:13:04;;;;;;;4.60;2.83;;;;;;;0.62;81.55;95026.66;5049679;28;20439;-73
2023/01/26 05:15:29;;;;;;;4.43;3.03;;;;;;;0.72;80.75;95046.34;5049470;28;20441;-73
2023/01/26 05:17:58;;;;;;;6.63;3.50;;;;;;;0.45;81.49;95027.44;5049951;28;20410;-73
2023/01/26 05:20:24;;;;;;;4.93;3.35;;;;;;;0.47;81.41;95043.66;5049597;28;20465;-73
2023/01/26 05:22:49;;;;;;;6.03;3.45;;;;;;;0.34;81.60;95031.88;5049077;28;20806;-74
2023/01/26 05:25:15;;;;;;;5.43;3.33;;;;;;;0.27;82.98;95017.84;5049478;28;20415;-71
2023/01/26 05:27:40;;;;;;;5.15;3.60;;;;;;;0.45;81.71;95030.03;5049256;28;20422;-73
2023/01/26 05:30:06;;;;;;;4.13;3.30;;;;;;;0.50;81.21;95020.06;5050167;28;20798;-73
2023/01/26 05:32:32;;;;;;;5.63;3.45;;;;;;;0.62;80.73;95024.06;5048536;28;20432;-73
2023/01/26 05:34:57;;;;;;;7.07;3.83;;;;;;;0.61;80.82;95012.06;5049332;28;20426;-73
2023/01/26 05:37:24;;;;;;;5.93;3.70;;;;;;;0.76;80.79;95021.00;5049071;28;20795;-73
2023/01/26 05:39:49;;;;;;;5.30;3.40;;;;;;;0.77;80.73;95019.22;5048373;28;20411;-73
2023/01/26 05:42:15;;;;;;;5.47;3.92;;;;;;;0.75;80.42;95003.81;5048664;28;20412;-73
2023/01/26 05:44:41;;;;;;;9.23;4.20;;;;;;;0.96;80.21;95014.69;5049070;28;21278;-73
2023/01/26 05:47:06;;;;;;;6.57;4.10;;;;;;;1.07;79.00;95019.66;5049278;28;20952;-73
2023/01/26 05:49:32;;;;;;;6.83;3.73;;;;;;;0.81;79.71;95012.75;5048913;28;20403;-73
2023/01/26 05:51:57;;;;;;;5.72;4.05;;;;;;;0.82;79.93;95002.25;5048763;28;20953;-73
2023/01/26 05:54:22;;;;;;;5.43;3.85;;;;;;;0.73;79.54;95019.50;5048958;28;20423;-73
2023/01/26 05:56:48;;;;;;;6.97;4.17;;;;;;;0.48;80.72;95022.78;5051258;28;20433;-73
2023/01/26 05:59:14;;;;;;;5.15;3.97;;;;;;;0.48;80.46;95024.56;5053158;28;20434;-73
2023/01/26 06:01:39;;;;;;;7.10;4.53;;;;;;;0.61;81.55;95017.25;5052721;28;20418;-73
2023/01/26 06:04:05;;;;;;;8.37;4.77;;;;;;;0.82;80.27;95030.75;5052969;28;20426;-73
2023/01/26 06:06:30;;;;;;;8.20;4.20;;;;;;;0.61;80.43;95004.28;5063707;28;21071;-73
2023/01/26 06:08:56;;;;;;;7.13;4.47;;;;;;;0.57;80.58;95028.88;5071937;28;20515;-73
2023/01/26 06:11:22;;;;;;;10.23;5.10;;;;;;;0.60;80.38;95010.47;5072695;28;20414;-73
2023/01/26 06:13:48;;;;;;;6.97;4.70;;;;;;;0.81;80.34;95018.75;5073085;28;20523;-73
2023/01/26 06:16:13;;;;;;;8.63;5.10;;;;;;;0.70;80.45;95006.00;5072436;28;20410;-73
2023/01/26 06:18:39;;;;;;;8.23;5.43;;;;;;;0.78;80.41;95002.72;5073131;28;20410;-73
2023/01/26 06:21:04;;;;;;;8.57;5.60;;;;;;;0.97;80.23;95010.31;5072546;28;20416;-73
2023/01/26 06:23:30;;;;;;;9.97;4.97;;;;;;;0.94;79.25;95002.84;5072545;28;20417;-73
2023/01/26 06:25:59;;;;;;;7.33;5.23;;;;;;;0.99;79.62;95004.03;5072465;28;20413;-73
2023/01/26 06:28:25;;;;;;;7.40;4.65;;;;;;;0.99;79.27;95017.00;5072525;28;20429;-73
2023/01/26 06:30:50;;;;;;;11.40;5.40;;;;;;;0.83;79.93;94998.69;5063905;28;20412;-73
2023/01/26 06:33:16;;;;;;;9.17;5.80;;;;;;;0.73;80.84;94988.41;5052221;28;20921;-73
2023/01/26 06:35:41;;;;;;;9.33;5.50;;;;;;;0.92;81.02;94994.41;5052491;28;20411;-73
2023/01/26 06:38:06;;;;;;;9.77;5.37;;;;;;;0.99;79.40;95001.44;5052130;28;20435;-73
2023/01/26 06:40:32;;;;;;;8.43;5.20;;;;;;;0.77;79.93;94986.34;5049014;28;20857;-73
2023/01/26 06:42:57;;;;;;;8.10;5.07;;;;;;;0.98;79.13;94981.66;5049870;28;20408;-73
2023/01/26 06:45:23;;;;;;;9.30;5.53;;;;;;;1.13;79.55;94997.50;5047737;28;20418;-73
2023/01/26 06:47:49;;;;;;;9.47;5.50;;;;;;;1.11;78.79;94997.66;5052317;28;20785;-73
2023/01/26 06:50:21;;;;;;;7.88;5.75;;;;;;;1.05;79.14;95002.59;5052290;28;20456;-73
2023/01/26 06:52:50;;;;;;;11.13;5.95;;;;;;;1.17;78.65;94992.84;5052310;28;20435;-73
2023/01/26 06:55:31;;;;;;;9.10;5.30;;;;;;;1.12;79.12;94983.72;5051664;28;20412;-73
2023/01/26 06:57:56;;;;;;;8.00;5.23;;;;;;;1.25;78.49;94985.94;5052174;28;20427;-73
2023/01/26 07:00:22;;;;;;;10.37;5.53;;;;;;;1.31;78.37;94974.94;5051850;28;20449;-73
2023/01/26 07:02:47;;;;;;;9.10;5.18;;;;;;;1.20;78.78;94979.59;5051853;28;20423;-73
2023/01/26 07:05:12;;;;;;;8.30;5.47;;;;;;;1.19;78.36;94985.72;5052058;28;20526;-73
2023/01/26 07:07:38;;;;;;;7.43;5.40;;;;;;;1.11;78.70;94982.13;5050683;28;20436;-73
2023/01/26 07:10:05;;;;;;;9.77;5.17;;;;;;;0.91;79.32;94982.41;5050615;28;20420;-73
2023/01/26 07:12:44;;;;;;;13.65;5.03;;;;;;;0.96;79.41;94969.81;5051398;28;20776;-73
2023/01/26 07:15:11;;;;;;;8.07;5.07;;;;;;;0.99;79.00;94979.91;5051467;28;20411;-73
2023/01/26 07:17:37;;;;;;;7.50;4.63;;;;;;;0.84;79.49;94977.03;5051712;28;20421;-73
2023/01/26 07:20:03;;;;;;;8.85;5.25;;;;;;;0.94;80.05;94971.75;5052102;28;20506;-73
2023/01/26 07:22:28;;;;;;;8.47;5.30;;;;;;;1.00;79.99;94966.78;5050036;28;20181;-73
2023/01/26 07:24:54;;;;;;;7.93;3.73;;;;;;;0.84;80.27;94960.66;5051100;28;20591;-73
2023/01/26 07:27:19;;;;;;;10.07;3.87;;;;;;;0.87;80.13;94975.88;5052611;28;20179;-73
2023/01/26 07:29:45;;;;;;;8.40;4.70;;;;;;;0.98;79.93;94963.53;5052713;28;20203;-72
2023/01/26 07:32:11;;;;;;;12.07;4.73;;;;;;;1.11;79.75;94958.78;5051292;28;20249;-72
2023/01/26 07:34:36;;;;;;;7.97;4.57;;;;;;;1.17;78.91;94962.53;5062044;28;20182;-72
2023/01/26 07:37:02;;;;;;;8.87;4.53;;;;;;;1.12;79.57;94968.16;5068152;28;20182;-72
2023/01/26 07:39:27;;;;;;;9.50;4.67;;;;;;;1.16;79.69;94970.47;5042371;28;21883;-72
2023/01/26 07:41:53;;;;;;;8.10;4.17;;;;;;;1.03;79.19;94950.13;5039670;28;20198;-72
2023/01/26 07:44:18;;;;;;;9.60;4.57;;;;;;;1.09;79.76;94952.94;5051912;28;20179;-72
2023/01/26 07:46:43;;;;;;;6.77;4.13;;;;;;;1.08;79.74;94943.53;5051120;28;20183;-72
2023/01/26 07:49:10;;;;;;;8.27;4.33;;;;;;;1.14;79.20;94955.88;5043558;28;20619;-72
2023/01/26 07:51:36;;;;;;;8.07;4.40;;;;;;;1.18;78.81;94953.00;5046555;28;20175;-72
2023/01/26 07:54:02;;;;;;;8.23;4.23;;;;;;;1.18;79.13;94960.78;5046149;28;20202;-72
2023/01/26 07:56:28;;;;;;;8.37;4.53;;;;;;;1.23;79.07;94964.53;5043554;28;20212;-72
2023/01/26 07:58:54;;;;;;;9.57;4.17;;;;;;;0.99;79.43;94961.75;5046486;28;20233;-72
2023/01/26 08:01:20;;;;;;;8.50;4.63;;;;;;;1.01;79.71;94963.25;5052013;28;20187;-72
2023/01/26 08:03:50;;;;;;;5.23;3.47;;;;;;;1.09;79.83;94960.72;5051651;28;20186;-72
2023/01/26 08:06:17;;;;;;;7.17;4.40;;;;;;;1.12;79.91;94949.22;5040818;28;20187;-75
2023/01/26 08:08:43;;;;;;;7.53;4.07;;;;;;;1.17;79.96;94951.34;5051106;28;20219;-73
2023/01/26 08:11:10;;;;;;;6.40;4.03;;;;;;;1.26;78.70;94945.28;5033144;28;20183;-73
2023/01/26 08:13:36;;;;;;;6.10;3.47;;;;;;;1.23;78.98;94943.78;5051575;28;20210;-73
2023/01/26 08:16:10;;;;;;;5.97;3.80;;;;;;;1.11;78.64;94943.25;5051471;28;20190;-73
2023/01/26 08:18:37;;;;;;;6.73;3.90;;;;;;;1.23;79.46;94943.78;5051323;28;20178;-73
2023/01/26 08:21:03;;;;;;;7.00;3.57;;;;;;;1.28;78.83;94933.78;5070618;28;20178;-73
2023/01/26 08:23:30;;;;;;;5.83;3.47;;;;;;;1.19;78.60;94923.53;5058163;28;20178;-72
2023/01/26 08:26:12;;;;;;;10.83;4.13;;;;;;;1.11;78.85;94940.66;5050900;28;20191;-72
2023/01/26 08:28:38;;;;;;;9.47;3.30;;;;;;;1.00;79.14;94920.16;5051336;28;20187;-72
2023/01/26 08:31:06;;;;;;;4.43;3.10;;;;;;;1.21;80.24;94924.97;5051373;28;20178;-72
2023/01/26 08:33:32;;;;;;;7.83;4.23;;;;;;;1.40;78.66;94934.34;5051068;28;20198;-73
2023/01/26 08:36:07;;;;;;;4.23;3.23;;;;;;;1.39;77.59;94917.16;5051195;28;20197;-73
2023/01/26 08:38:33;;;;;;;4.80;3.27;;;;;;;1.47;78.09;94922.41;5051132;28;20181;-71
2023/01/26 08:41:00;;;;;;;6.50;4.27;;;;;;;1.45;77.68;94919.97;5051024;28;20248;-72
2023/01/26 08:43:26;;;;;;;4.20;3.17;;;;;;;1.42;78.10;94917.66;5060158;28;20232;-73
2023/01/26 08:45:51;;;;;;;5.50;3.40;;;;;;;1.33;78.12;94917.75;5070776;28;20182;-73
2023/01/26 08:48:17;;;;;;;6.30;3.30;;;;;;;1.20;78.08;94920.78;5053885;28;20630;-73
2023/01/26 08:50:43;;;;;;;5.80;3.80;;;;;;;1.26;77.86;94917.56;5050905;28;20273;-72
2023/01/26 08:53:09;;;;;;;5.07;3.00;;;;;;;1.49;77.93;94949.78;5050611;28;20249;-72
2023/01/26 08:55:34;;;;;;;6.27;3.57;;;;;;;1.43;77.11;94928.84;5050858;28;20214;-72
2023/01/26 08:58:00;;;;;;;7.07;3.30;;;;;;;1.55;77.06;94942.38;5050184;28;20210;-72
2023/01/26 09:00:26;;;;;;;4.47;2.90;;;;;;;1.75;78.58;94917.81;5050901;28;20171;-73
2023/01/26 09:02:59;;;;;;;3.33;2.50;;;;;;;1.82;76.34;94921.41;5050580;28;20170;-73
2023/01/26 09:05:26;;;;;;;3.30;2.17;;;;;;;1.63;75.53;94917.31;5046355;28;20182;-72
2023/01/26 09:07:51;;;;;;;4.27;2.93;;;;;;;1.51;75.51;94921.94;5050774;28;20310;-71
2023/01/26 09:10:16;;;;;;;4.70;2.90;;;;;;;1.47;76.65;94928.38;5050528;28;20302;-72
2023/01/26 09:12:43;;;;;;;3.60;2.60;;;;;;;1.46;75.92;94925.97;5050409;28;20211;-72
2023/01/26 09:15:09;;;;;;;2.83;2.53;;;;;;;1.58;76.69;94924.72;5050872;28;20183;-72
2023/01/26 09:17:35;;;;;;;4.70;2.67;;;;;;;1.52;75.79;94917.56;5050568;28;20179;-73
2023/01/26 09:20:00;;;;;;;2.93;2.33;;;;;;;1.63;75.84;94916.50;5050185;28;20179;-73
2023/01/26 09:22:25;;;;;;;2.97;2.20;;;;;;;1.62;75.50;94927.81;5050427;28;20650;-72
2023/01/26 09:24:51;;;;;;;2.57;1.90;;;;;;;1.46;76.16;94910.41;5050392;28;20183;-72
2023/01/26 09:27:16;;;;;;;3.27;2.53;;;;;;;1.49;76.19;94910.88;5050372;28;20262;-72
2023/01/26 09:29:41;;;;;;;5.13;2.57;;;;;;;1.46;76.11;94906.03;5050153;28;20250;-72
2023/01/26 09:32:07;;;;;;;3.63;2.43;;;;;;;1.46;76.37;94895.66;5047860;28;20594;-73
2023/01/26 09:34:32;;;;;;;5.97;2.90;;;;;;;1.63;76.36;94886.16;5055288;28;20183;-73
2023/01/26 09:36:58;;;;;;;2.80;2.27;;;;;;;1.62;76.27;94876.75;5055539;28;20641;-72
2023/01/26 09:39:23;;;;;;;3.53;2.60;;;;;;;1.58;76.02;94874.63;5068424;28;20186;-73
2023/01/26 09:42:01;;;;;;;6.50;2.60;;;;;;;1.55;75.96;94893.91;5070517;28;20652;-72
2023/01/26 09:44:30;;;;;;;3.23;2.27;;;;;;;1.48;76.74;94885.91;5070338;28;20199;-73
2023/01/26 09:47:18;;;;;;;3.40;2.47;;;;;;;1.62;76.69;94889.72;5070205;28;20182;-72
2023/01/26 09:49:49;;;;;;;3.10;2.10;;;;;;;1.47;76.84;94888.69;5070248;28;20368;-74
2023/01/26 09:52:25;;;;;;;3.30;2.37;;;;;;;1.55;76.99;94880.13;5070520;28;20206;-74
2023/01/26 09:54:53;;;;;;;2.33;1.70;;;;;;;1.65;76.47;94873.84;5050090;28;20190;-73
2023/01/26 09:57:33;;;;;;;5.93;2.00;;;;;;;1.62;76.55;94866.38;5049310;28;20213;-75
2023/01/26 10:00:05;;;;;;;3.43;2.43;;;;;;;1.60;77.34;94862.31;5058315;28;20190;-75
2023/01/26 10:03:09;;;;;;;5.73;2.00;;;;;;;1.81;76.62;94865.31;5046441;28;20234;-75
2023/01/26 10:05:35;;;;;;;2.97;2.23;;;;;;;1.68;76.35;94872.72;5053705;28;20660;-75
2023/01/26 10:08:02;;;;;;;2.73;1.80;;;;;;;1.72;77.12;94871.44;5067803;28;20222;-75
2023/01/26 10:10:33;;;;;;;4.33;2.60;;;;;;;1.75;76.70;94868.53;5042198;28;20171;-74
2023/01/26 10:13:00;;;;;;;3.77;2.03;;;;;;;1.77;76.36;94864.00;5043899;28;20210;-74
2023/01/26 10:15:41;;;;;;;3.33;2.10;;;;;;;1.85;76.29;94874.41;5041987;28;20202;-73
2023/01/26 10:18:16;;;;;;;3.00;2.43;;;;;;;1.88;75.85;94858.53;5047140;28;20186;-73
2023/01/26 10:20:46;;;;;;;4.13;2.37;;;;;;;1.92;75.12;94836.47;5042606;28;20182;-72
2023/01/26 10:23:20;;;;;;;3.67;2.30;;;;;;;1.96;75.52;94829.19;5040800;28;20171;-74
2023/01/26 10:25:46;;;;;;;3.93;2.70;;;;;;;1.94;75.89;94820.75;5039710;28;20166;-74
2023/01/26 10:28:26;;;;;;;3.63;2.60;;;;;;;1.92;76.27;94802.72;5045494;28;20178;-75
2023/01/26 10:30:52;;;;;;;3.53;2.67;;;;;;;2.02;75.68;94805.19;5057205;28;20181;-76
2023/01/26 10:33:35;;;;;;;3.43;2.00;;;;;;;1.92;75.35;94787.16;5041275;28;20204;-74
2023/01/26 10:36:03;;;;;;;3.23;2.43;;;;;;;2.04;75.34;94791.09;5045149;28;20175;-77
2023/01/26 10:38:31;;;;;;;3.77;2.40;;;;;;;2.14;75.23;94786.56;5065616;28;20659;-75
2023/01/26 10:41:19;;;;;;;2.87;2.03;;;;;;;2.20;75.04;94782.50;5053063;28;20175;-74
2023/01/26 10:44:19;;;;;;;4.80;2.70;;;;;;;2.28;74.79;94766.91;5063160;28;20169;-75
2023/01/26 10:46:45;;;;;;;2.60;2.10;;;;;;;2.14;74.79;94765.78;5051438;28;20568;-74
2023/01/26 10:49:11;;;;;;;4.90;2.10;;;;;;;2.15;75.09;94751.03;5047211;28;20185;-74
2023/01/26 10:51:38;;;;;;;4.00;2.87;;;;;;;2.23;74.94;94749.25;5046006;28;20185;-73
2023/01/26 10:54:42;;;;;;;5.70;2.50;;;;;;;2.30;74.18;94740.78;5061916;28;20190;-74
2023/01/26 10:57:21;;;;;;;3.30;2.23;;;;;;;2.29;74.46;94752.97;5042148;28;20218;-73
2023/01/26 11:00:07;;;;;;;3.63;2.10;;;;;;;2.30;75.01;94744.19;5036145;28;20226;-74
2023/01/26 11:02:34;;;;;;;3.57;2.60;;;;;;;2.26;74.90;94737.69;5053335;28;20514;-74
2023/01/26 11:05:09;;;;;;;4.13;2.73;;;;;;;2.09;75.18;94725.69;5049832;28;20193;-74
2023/01/26 11:07:40;;;;;;;3.37;2.10;;;;;;;2.16;75.28;94716.31;5050512;28;20257;-75
2023/01/26 11:10:31;;;;;;;2.80;1.83;;;;;;;2.18;74.89;94701.34;5051367;28;20230;-74
2023/01/26 11:13:18;;;;;;;2.97;2.40;;;;;;;2.33;74.86;94701.53;5050735;28;20277;-74
2023/01/26 11:15:49;;;;;;;3.23;2.43;;;;;;;2.28;74.77;94700.22;5050564;28;20187;-74
2023/01/26 11:18:22;;;;;;;3.17;2.00;;;;;;;2.11;74.81;94690.81;5051949;28;20622;-74
2023/01/26 11:20:56;;;;;;;3.17;2.17;;;;;;;2.08;75.28;94724.06;5050986;28;20565;-74
2023/01/26 11:23:30;;;;;;;2.40;1.90;;;;;;;2.03;75.71;94693.41;5051911;28;20656;-74
2023/01/26 11:26:44;;;;;;;2.17;1.90;;;;;;;2.20;75.90;94683.84;5051953;28;20228;-74
2023/01/26 11:29:28;;;;;;;2.33;1.90;;;;;;;2.36;74.90;94668.22;5050532;28;20201;-74
2023/01/26 11:32:02;;;;;;;4.53;2.17;;;;;;;2.37;74.78;94672.44;5052071;28;20205;-74
2023/01/26 11:34:46;;;;;;;2.43;2.23;;;;;;;2.30;75.02;94687.06;5050721;28;20175;-74
2023/01/26 11:37:20;;;;;;;2.60;2.40;;;;;;;2.16;75.48;94672.16;5052556;28;20252;-74
2023/01/26 11:40:10;;;;;;;3.47;2.63;;;;;;;2.23;76.20;94668.75;5051997;28;20605;-74
2023/01/26 11:42:50;;;;;;;2.33;2.13;;;;;;;2.28;75.67;94666.47;5051810;28;20262;-74
2023/01/26 11:45:35;;;;;;;3.13;1.80;;;;;;;2.30;75.15;94662.91;5052050;28;20182;-74
2023/01/26 11:48:21;;;;;;;2.20;2.00;;;;;;;2.30;75.17;94642.94;5051956;28;20262;-74
2023/01/26 11:50:57;;;;;;;3.60;1.93;;;;;;;2.32;75.57;94658.34;5051506;28;20301;-74
2023/01/26 11:53:44;;;;;;;2.40;2.20;;;;;;;2.20;75.96;94656.09;5051228;28;20293;-74
2023/01/26 11:56:29;;;;;;;2.70;2.30;;;;;;;2.36;76.30;94657.03;5051580;28;20186;-75
2023/01/26 11:59:13;;;;;;;2.10;1.90;;;;;;;2.26;75.64;94654.63;5064801;28;20189;-74
2023/01/26 12:01:45;;;;;;;4.17;2.60;;;;;;;2.25;76.00;94643.41;5071457;28;20167;-74
2023/01/26 12:04:19;;;;;;;2.67;1.93;;;;;;;2.19;76.66;94640.69;5071594;28;20189;-74
2023/01/26 12:06:52;;;;;;;3.60;2.47;;;;;;;2.13;76.49;94636.16;5071680;28;20182;-74
2023/01/26 12:09:35;;;;;;;3.23;2.23;;;;;;;2.00;77.25;94618.47;5071107;28;20226;-74
2023/01/26 12:12:05;;;;;;;2.73;2.17;;;;;;;2.07;77.64;94629.84;5056449;28;20556;-74
2023/01/26 12:14:55;;;;;;;4.90;2.50;;;;;;;2.02;78.01;94621.72;5051864;28;20278;-75
2023/01/26 12:17:33;;;;;;;3.80;2.93;;;;;;;2.07;77.41;94614.25;5046166;28;20214;-75
2023/01/26 12:20:17;;;;;;;4.13;2.83;;;;;;;2.12;77.89;94605.97;5061126;28;20559;-75
2023/01/26 12:22:53;;;;;;;5.63;2.57;;;;;;;2.23;77.82;94598.66;5034267;28;20183;-74
2023/01/26 12:25:30;;;;;;;2.60;1.83;;;;;;;2.24;76.81;94589.88;5050650;28;20187;-74
2023/01/26 12:28:21;;;;;;;3.77;2.80;;;;;;;2.37;77.28;94584.16;5051560;28;20183;-74
2023/01/26 12:31:08;;;;;;;5.27;2.73;;;;;;;2.44;77.09;94582.50;5059255;28;20193;-74
2023/01/26 12:33:35;;;;;;;8.03;3.40;;;;;;;2.44;77.23;94579.91;5057468;28;20234;-74